createdAt,value
2018-06-29T00:00:56.040Z,3.53
2018-06-29T00:03:36.505Z,3.53
2018-06-29T00:06:09.757Z,3.63
2018-06-29T00:08:40.094Z,3.90
2018-06-29T00:11:08.270Z,3.77
2018-06-29T00:13:41.393Z,3.33
2018-06-29T00:16:14.751Z,3.80
2018-06-29T00:18:54.839Z,3.57
2018-06-29T00:21:23.417Z,3.30
2018-06-29T00:23:51.739Z,3.77
2018-06-29T00:26:19.951Z,3.50
2018-06-29T00:28:55.495Z,3.33
2018-06-29T00:31:28.096Z,3.70
2018-06-29T00:34:01.042Z,3.50
2018-06-29T00:36:33.389Z,3.70
2018-06-29T00:39:06.228Z,3.47
2018-06-29T00:41:37.350Z,3.60
2018-06-29T00:44:08.539Z,3.53
2018-06-29T00:46:36.753Z,3.53
2018-06-29T00:49:14.495Z,3.70
2018-06-29T00:51:42.634Z,3.03
2018-06-29T00:54:15.758Z,3.43
2018-06-29T00:56:49.451Z,3.70
2018-06-29T00:59:29.346Z,3.77
2018-06-29T01:01:59.933Z,3.27
2018-06-29T01:04:31.256Z,3.33
2018-06-29T01:06:59.445Z,3.40
2018-06-29T01:09:31.707Z,4.17
2018-06-29T01:12:04.963Z,4.13
2018-06-29T01:14:36.351Z,4.13
2018-06-29T01:17:06.866Z,3.60
2018-06-29T01:19:45.367Z,3.87
2018-06-29T01:22:13.800Z,4.70
2018-06-29T01:24:52.079Z,3.77
2018-06-29T01:27:24.790Z,4.73
2018-06-29T01:29:55.781Z,4.30
2018-06-29T01:32:23.975Z,3.87
2018-06-29T01:34:58.481Z,3.93
2018-06-29T01:37:29.446Z,4.00
2018-06-29T01:39:59.869Z,4.00
2018-06-29T01:42:28.135Z,3.97
2018-06-29T01:44:56.301Z,4.43
2018-06-29T01:47:31.569Z,4.27
2018-06-29T01:50:04.835Z,4.37
2018-06-29T01:52:35.145Z,5.77
2018-06-29T01:55:03.432Z,5.10
2018-06-29T01:57:31.629Z,5.67
2018-06-29T02:00:04.863Z,5.60
2018-06-29T02:02:36.077Z,5.90
2018-06-29T02:05:04.214Z,5.00
2018-06-29T02:07:37.385Z,5.80
2018-06-29T02:10:08.341Z,5.47
2018-06-29T02:12:36.537Z,5.23
2018-06-29T02:15:07.495Z,4.90
2018-06-29T02:17:35.635Z,5.60
2018-06-29T02:20:08.139Z,5.30
2018-06-29T02:22:39.185Z,6.30
2018-06-29T02:25:07.915Z,4.90
2018-06-29T02:27:43.344Z,6.00
2018-06-29T02:30:13.792Z,5.50
2018-06-29T02:32:56.435Z,5.53
2018-06-29T02:35:24.826Z,6.57
2018-06-29T02:37:56.899Z,6.03
2018-06-29T02:40:36.824Z,6.27
2018-06-29T02:43:04.977Z,6.40
2018-06-29T02:45:35.940Z,6.40
2018-06-29T02:48:04.307Z,6.73
2018-06-29T02:50:32.484Z,5.23
2018-06-29T02:53:12.382Z,6.50
2018-06-29T02:55:40.957Z,6.60
2018-06-29T02:58:09.381Z,5.67
2018-06-29T03:00:37.552Z,5.90
2018-06-29T03:03:12.223Z,6.83
2018-06-29T03:05:40.372Z,6.80
2018-06-29T03:08:11.317Z,6.30
2018-06-29T03:10:39.552Z,5.83
2018-06-29T03:13:11.862Z,7.10
2018-06-29T03:15:42.655Z,5.93
2018-06-29T03:18:11.394Z,6.83
2018-06-29T03:20:39.732Z,7.03
2018-06-29T03:23:07.918Z,6.80
2018-06-29T03:25:42.519Z,6.63
2018-06-29T03:28:10.737Z,6.90
2018-06-29T03:30:50.665Z,6.70
2018-06-29T03:33:19.032Z,6.83
2018-06-29T03:35:47.200Z,7.60
2018-06-29T03:38:21.692Z,7.17
2018-06-29T03:40:58.505Z,7.33
2018-06-29T03:43:27.000Z,6.27
2018-06-29T03:45:55.271Z,6.20
2018-06-29T03:48:23.476Z,6.10
2018-06-29T03:50:57.947Z,5.83
2018-06-29T03:53:34.646Z,5.77
2018-06-29T03:56:02.842Z,6.13
2018-06-29T03:58:40.520Z,6.73
2018-06-29T04:01:09.094Z,7.50
2018-06-29T04:03:37.275Z,6.00
2018-06-29T04:06:11.908Z,6.97
2018-06-29T04:08:44.008Z,6.00
2018-06-29T04:11:14.941Z,7.23
2018-06-29T04:13:43.297Z,6.83
2018-06-29T04:16:11.643Z,6.73
2018-06-29T04:18:42.797Z,7.40
2018-06-29T04:21:13.982Z,8.27
2018-06-29T04:23:42.269Z,7.53
2018-06-29T04:26:12.521Z,7.97
2018-06-29T04:28:50.411Z,7.20
2018-06-29T04:31:18.605Z,7.80
2018-06-29T04:33:53.303Z,7.60
2018-06-29T04:36:21.786Z,8.37
2018-06-29T04:38:49.870Z,6.87
2018-06-29T04:41:25.473Z,6.83
2018-06-29T04:44:02.168Z,6.53
2018-06-29T04:46:30.391Z,6.23
2018-06-29T04:49:13.176Z,6.30
2018-06-29T04:51:41.806Z,6.70
2018-06-29T04:54:21.348Z,6.43
2018-06-29T04:56:53.868Z,6.37
2018-06-29T04:59:33.834Z,5.90
2018-06-29T05:02:02.003Z,6.53
2018-06-29T05:04:34.447Z,6.60
2018-06-29T05:07:05.547Z,6.07
2018-06-29T05:09:43.924Z,6.77
2018-06-29T05:12:14.482Z,5.97
2018-06-29T05:14:50.090Z,6.33
2018-06-29T05:17:30.034Z,5.83
2018-06-29T05:20:00.403Z,6.37
2018-06-29T05:22:28.582Z,6.20
2018-06-29T05:25:04.751Z,6.50
2018-06-29T05:27:35.734Z,6.27
2018-06-29T05:30:07.620Z,6.63
2018-06-29T05:32:40.877Z,5.77
2018-06-29T05:35:09.286Z,6.10
2018-06-29T05:37:37.670Z,5.90
2018-06-29T05:40:06.104Z,6.00
2018-06-29T05:42:34.268Z,5.80
2018-06-29T05:45:08.953Z,5.93
2018-06-29T05:47:37.155Z,6.10
2018-06-29T05:50:09.969Z,5.47
2018-06-29T05:52:38.146Z,5.20
2018-06-29T05:55:11.655Z,5.30
2018-06-29T05:57:46.219Z,5.40
2018-06-29T06:00:17.160Z,6.03
2018-06-29T06:02:47.322Z,5.17
2018-06-29T06:05:15.449Z,6.30
2018-06-29T06:07:46.394Z,5.13
2018-06-29T06:10:14.549Z,5.73
2018-06-29T06:12:45.734Z,5.00
2018-06-29T06:15:26.478Z,5.07
2018-06-29T06:18:01.020Z,5.40
2018-06-29T06:20:33.323Z,5.23
2018-06-29T06:23:13.216Z,5.77
2018-06-29T06:25:41.399Z,5.57
2018-06-29T06:28:09.697Z,5.17
2018-06-29T06:30:43.938Z,5.60
2018-06-29T06:33:23.849Z,5.00
2018-06-29T06:35:51.993Z,5.17
2018-06-29T06:38:27.475Z,5.67
2018-06-29T06:41:02.699Z,5.13
2018-06-29T06:43:33.729Z,5.30
2018-06-29T06:46:01.898Z,4.87
2018-06-29T06:48:36.867Z,5.00
2018-06-29T06:51:05.617Z,5.80
2018-06-29T06:53:37.971Z,5.63
2018-06-29T06:56:09.145Z,4.90
2018-06-29T06:58:37.396Z,5.57
2018-06-29T07:01:10.547Z,4.97
2018-06-29T07:03:47.372Z,5.43
2018-06-29T07:06:15.589Z,5.00
2018-06-29T07:08:50.073Z,5.13
2018-06-29T07:11:24.494Z,4.30
2018-06-29T07:13:59.025Z,4.93
2018-06-29T07:16:29.559Z,4.77
2018-06-29T07:18:59.797Z,4.23
2018-06-29T07:21:35.238Z,4.67
2018-06-29T07:24:15.807Z,4.30
2018-06-29T07:26:46.967Z,4.40
2018-06-29T07:29:15.464Z,3.80
2018-06-29T07:31:48.784Z,4.37
2018-06-29T07:34:28.650Z,4.20
2018-06-29T07:36:59.572Z,4.40
2018-06-29T07:39:30.241Z,4.00
2018-06-29T07:42:02.614Z,3.43
2018-06-29T07:44:43.281Z,3.10
2018-06-29T07:47:17.726Z,3.80
2018-06-29T07:49:52.343Z,4.27
2018-06-29T07:52:24.659Z,3.77
2018-06-29T07:54:59.927Z,3.50
2018-06-29T07:57:36.379Z,3.73
2018-06-29T08:00:05.308Z,4.20
2018-06-29T08:02:33.699Z,4.43
2018-06-29T08:05:01.911Z,4.23
2018-06-29T08:07:37.228Z,4.10
2018-06-29T08:10:09.802Z,3.77
2018-06-29T08:12:45.422Z,4.00
2018-06-29T08:15:18.685Z,4.17
2018-06-29T08:17:50.841Z,3.90
2018-06-29T08:20:21.052Z,3.60
2018-06-29T08:22:49.055Z,2.83
2018-06-29T08:28:06.999Z,3.23
2018-06-29T08:30:37.370Z,2.87
2018-06-29T08:33:11.779Z,3.40
2018-06-29T08:35:42.950Z,3.43
2018-06-29T08:38:10.862Z,3.17
2018-06-29T08:40:44.254Z,2.67
2018-06-29T08:43:16.626Z,2.43
2018-06-29T08:45:46.857Z,2.40
2018-06-29T08:48:15.338Z,2.80
2018-06-29T08:50:43.717Z,2.90
2018-06-29T08:53:11.873Z,2.57
2018-06-29T08:55:52.594Z,2.30
2018-06-29T08:58:20.904Z,2.57
2018-06-29T09:00:49.309Z,2.30
2018-06-29T09:03:19.495Z,2.00
2018-06-29T09:05:50.553Z,2.40
2018-06-29T09:08:18.932Z,2.20
2018-06-29T09:10:47.134Z,2.30
2018-06-29T09:13:23.793Z,2.07
2018-06-29T09:15:51.978Z,1.83
2018-06-29T09:18:26.475Z,2.00
2018-06-29T09:20:59.817Z,1.90
2018-06-29T09:23:35.338Z,2.23
2018-06-29T09:26:08.287Z,2.30
2018-06-29T09:28:36.583Z,2.30
2018-06-29T09:31:04.731Z,2.67
2018-06-29T09:33:35.718Z,2.70
2018-06-29T09:36:03.936Z,2.30
2018-06-29T09:38:35.325Z,2.77
2018-06-29T09:41:09.721Z,2.37
2018-06-29T09:43:39.934Z,2.30
2018-06-29T09:46:11.293Z,2.03
2018-06-29T09:48:41.680Z,2.90
2018-06-29T09:51:13.986Z,2.60
2018-06-29T09:53:42.192Z,2.00
2018-06-29T09:56:17.514Z,1.80
2018-06-29T09:58:48.994Z,1.80
2018-06-29T10:01:25.779Z,1.87
2018-06-29T10:03:54.171Z,2.30
2018-06-29T10:06:22.200Z,2.00
2018-06-29T10:09:00.480Z,1.93
2018-06-29T10:11:30.478Z,2.37
2018-06-29T10:14:08.825Z,1.60
2018-06-29T10:16:41.237Z,2.07
2018-06-29T10:19:15.946Z,2.17
2018-06-29T10:21:44.337Z,2.17
2018-06-29T10:24:12.539Z,1.90
2018-06-29T10:26:46.933Z,2.00
2018-06-29T10:29:17.412Z,1.60
2018-06-29T10:31:51.375Z,1.63
2018-06-29T10:34:22.552Z,1.90
2018-06-29T10:36:53.367Z,2.10
2018-06-29T10:39:21.719Z,2.03
2018-06-29T10:41:49.746Z,2.13
2018-06-29T10:44:19.993Z,2.00
2018-06-29T10:46:48.093Z,1.83
2018-06-29T10:49:25.832Z,1.87
2018-06-29T10:51:53.799Z,1.63
2018-06-29T10:54:33.583Z,1.90
2018-06-29T10:57:01.559Z,1.50
2018-06-29T10:59:42.011Z,1.77
2018-06-29T11:02:23.802Z,1.83
2018-06-29T11:04:51.765Z,1.60
2018-06-29T11:07:22.849Z,1.60
2018-06-29T11:09:50.805Z,1.40
2018-06-29T11:12:30.600Z,1.40
2018-06-29T11:14:58.535Z,1.50
2018-06-29T11:17:28.681Z,1.40
2018-06-29T11:19:56.651Z,1.33
2018-06-29T11:22:45.028Z,1.40
2018-06-29T11:25:15.828Z,1.10
2018-06-29T11:27:43.814Z,1.10
2018-06-29T11:30:11.868Z,1.50
2018-06-29T11:32:39.824Z,1.60
2018-06-29T11:35:09.873Z,1.40
2018-06-29T11:37:37.954Z,1.23
2018-06-29T11:40:09.118Z,1.00
2018-06-29T11:42:37.152Z,1.20
2018-06-29T11:45:09.574Z,1.00
2018-06-29T11:47:41.864Z,1.00
2018-06-29T11:50:12.727Z,0.97
2018-06-29T11:52:40.703Z,1.40
2018-06-29T11:55:11.646Z,1.20
2018-06-29T11:57:43.725Z,1.30
2018-06-29T12:00:11.795Z,1.10
2018-06-29T12:02:39.786Z,1.20
2018-06-29T12:05:10.613Z,1.40
2018-06-29T12:07:39.414Z,1.30
2018-06-29T12:10:07.452Z,1.37
2018-06-29T12:12:38.159Z,1.17
2018-06-29T12:15:06.954Z,1.20
2018-06-29T12:17:34.926Z,1.40
2018-06-29T12:20:07.286Z,1.30
2018-06-29T12:22:39.677Z,1.73
2018-06-29T12:25:10.469Z,1.40
2018-06-29T12:27:41.502Z,1.33
2018-06-29T12:30:09.534Z,1.50
2018-06-29T12:32:37.556Z,1.83
2018-06-29T12:35:05.592Z,1.67
2018-06-29T12:37:33.573Z,1.40
2018-06-29T12:40:05.857Z,1.40
2018-06-29T12:42:34.187Z,2.60
2018-06-29T12:45:02.188Z,1.70
2018-06-29T12:47:42.647Z,1.40
2018-06-29T12:50:17.144Z,1.40
2018-06-29T12:52:51.690Z,1.60
2018-06-29T12:55:26.346Z,1.60
2018-06-29T12:57:54.626Z,1.70
2018-06-29T13:00:23.686Z,2.20
2018-06-29T13:02:51.811Z,1.90
2018-06-29T13:05:20.116Z,2.23
2018-06-29T13:07:50.305Z,2.37
2018-06-29T13:10:20.491Z,2.97
2018-06-29T13:12:50.678Z,2.40
2018-06-29T13:15:18.848Z,2.40
2018-06-29T13:17:49.887Z,2.20
2018-06-29T13:20:18.048Z,2.60
2018-06-29T13:22:52.071Z,2.70
2018-06-29T13:25:32.746Z,2.90
2018-06-29T13:28:07.386Z,2.40
2018-06-29T13:30:35.647Z,2.93
2018-06-29T13:33:08.767Z,2.57
2018-06-29T13:35:37.322Z,2.60
2018-06-29T13:38:15.726Z,2.67
2018-06-29T13:40:57.580Z,2.60
2018-06-29T13:43:30.046Z,2.27
2018-06-29T13:45:58.256Z,2.23
2018-06-29T13:48:31.278Z,2.87
2018-06-29T13:50:59.860Z,2.60
2018-06-29T13:53:29.980Z,2.90
2018-06-29T13:55:58.108Z,2.33
2018-06-29T13:58:31.350Z,3.50
2018-06-29T14:01:01.575Z,3.30
2018-06-29T14:03:29.818Z,3.70
2018-06-29T14:06:02.715Z,4.00
2018-06-29T14:08:31.082Z,3.27
2018-06-29T14:10:59.467Z,2.80
2018-06-29T14:13:27.529Z,3.00
2018-06-29T14:15:58.499Z,2.50
2018-06-29T14:18:26.657Z,2.57
2018-06-29T14:20:56.816Z,2.20
2018-06-29T14:23:26.873Z,2.57
2018-06-29T14:25:54.850Z,2.10
2018-06-29T14:28:23.836Z,2.63
2018-06-29T14:30:56.006Z,2.33
2018-06-29T14:33:35.922Z,2.17
2018-06-29T14:36:04.046Z,1.90
2018-06-29T14:38:35.302Z,1.60
2018-06-29T14:41:06.080Z,1.93
2018-06-29T14:43:38.720Z,2.00
2018-06-29T14:46:06.649Z,1.90
2018-06-29T14:48:42.121Z,2.13
2018-06-29T14:51:16.205Z,1.70
2018-06-29T14:53:44.374Z,1.90
2018-06-29T14:56:16.864Z,1.97
2018-06-29T14:58:49.259Z,2.30
2018-06-29T15:01:22.610Z,1.77
2018-06-29T15:03:59.397Z,1.90
2018-06-29T15:06:27.596Z,1.97
2018-06-29T15:08:55.738Z,2.10
2018-06-29T15:11:33.541Z,1.83
2018-06-29T15:14:07.960Z,1.50
2018-06-29T15:16:42.608Z,1.97
2018-06-29T15:19:10.750Z,1.90
2018-06-29T15:21:41.151Z,1.77
2018-06-29T15:24:14.312Z,1.90
2018-06-29T15:26:42.511Z,2.07
2018-06-29T15:29:10.770Z,1.77
2018-06-29T15:31:46.082Z,1.70
2018-06-29T15:34:18.569Z,2.30
2018-06-29T15:36:46.497Z,1.93
2018-06-29T15:39:14.795Z,1.80
2018-06-29T15:41:51.306Z,2.53
2018-06-29T15:44:24.578Z,2.00
2018-06-29T15:46:59.153Z,2.07
2018-06-29T15:49:29.997Z,2.23
2018-06-29T15:51:58.418Z,2.40
2018-06-29T15:54:26.627Z,2.17
2018-06-29T15:56:59.049Z,2.40
2018-06-29T15:59:31.415Z,2.17
2018-06-29T16:02:05.902Z,2.33
2018-06-29T16:04:40.385Z,2.30
2018-06-29T16:07:18.028Z,3.33
2018-06-29T16:09:46.250Z,2.30
2018-06-29T16:12:20.553Z,2.50
2018-06-29T16:14:51.623Z,2.80
2018-06-29T16:17:22.821Z,2.43
2018-06-29T16:19:51.202Z,2.53
2018-06-29T16:22:30.689Z,2.40
2018-06-29T16:24:58.942Z,2.50
2018-06-29T16:27:33.229Z,2.27
2018-06-29T16:30:09.126Z,2.70
2018-06-29T16:32:37.335Z,2.30
2018-06-29T16:35:10.757Z,2.50
2018-06-29T16:37:41.702Z,2.97
2018-06-29T16:40:09.952Z,2.40
2018-06-29T16:42:42.374Z,2.57
2018-06-29T16:45:13.203Z,2.73
2018-06-29T16:47:41.434Z,2.60
2018-06-29T16:50:09.633Z,2.40
2018-06-29T16:52:49.926Z,2.70
2018-06-29T16:55:21.136Z,2.67
2018-06-29T16:57:49.657Z,2.80
2018-06-29T17:00:18.083Z,3.07
2018-06-29T17:02:46.493Z,3.00
2018-06-29T17:05:14.645Z,2.60
2018-06-29T17:07:49.075Z,2.80
2018-06-29T17:10:21.541Z,2.53
2018-06-29T17:12:54.705Z,2.97
2018-06-29T17:15:30.834Z,3.03
2018-06-29T17:17:59.257Z,2.60
2018-06-29T17:20:27.464Z,3.03
2018-06-29T17:23:02.021Z,2.90
2018-06-29T17:25:33.174Z,3.23
2018-06-29T17:28:04.158Z,3.43
2018-06-29T17:30:32.359Z,3.27
2018-06-29T17:35:38.302Z,2.83
2018-06-29T17:38:12.381Z,3.33
2018-06-29T17:40:44.722Z,2.80
2018-06-29T17:43:15.121Z,3.17
2018-06-29T17:45:43.599Z,3.43
2018-06-29T17:48:12.044Z,3.60
2018-06-29T17:50:40.454Z,4.10
2018-06-29T17:53:08.678Z,3.40
2018-06-29T17:55:40.830Z,4.13
2018-06-29T17:58:11.994Z,3.83
2018-06-29T18:00:40.051Z,3.20
2018-06-29T18:03:14.578Z,3.90
2018-06-29T18:05:44.567Z,3.87
2018-06-29T18:08:14.598Z,4.00
2018-06-29T18:10:54.513Z,3.90
2018-06-29T18:13:27.810Z,4.50
2018-06-29T18:15:56.290Z,4.13
2018-06-29T18:18:24.251Z,4.10
2018-06-29T18:20:56.677Z,3.97
2018-06-29T18:23:30.890Z,4.27
2018-06-29T18:26:02.753Z,4.30
2018-06-29T18:28:32.751Z,4.00
2018-06-29T18:31:02.824Z,4.43
2018-06-29T18:33:30.776Z,4.50
2018-06-29T18:35:58.824Z,4.73
2018-06-29T18:38:32.507Z,4.20
2018-06-29T18:41:00.497Z,4.53
2018-06-29T18:43:35.975Z,4.67
2018-06-29T18:46:10.677Z,4.37
2018-06-29T18:48:42.788Z,4.80
2018-06-29T18:51:13.537Z,4.13
2018-06-29T18:53:45.645Z,4.60
2018-06-29T18:56:16.331Z,4.70
2018-06-29T18:58:50.824Z,4.97
2018-06-29T19:01:25.440Z,5.03
2018-06-29T19:03:53.401Z,4.73
2018-06-29T19:06:33.291Z,4.53
2018-06-29T19:09:01.242Z,4.83
2018-06-29T19:11:31.307Z,5.60
2018-06-29T19:13:59.322Z,5.67
2018-06-29T19:16:37.319Z,5.03
2018-06-29T19:19:05.365Z,5.80
2018-06-29T19:21:40.913Z,5.43
2018-06-29T19:24:16.297Z,5.53
2018-06-29T19:26:47.887Z,6.27
2018-06-29T19:29:23.266Z,6.70
2018-06-29T19:31:57.568Z,5.83
2018-06-29T19:34:30.088Z,6.47
2018-06-29T19:37:03.600Z,6.73
2018-06-29T19:39:41.969Z,6.40
2018-06-29T19:42:16.554Z,7.13
2018-06-29T19:44:47.593Z,7.17
2018-06-29T19:47:27.533Z,7.37
2018-06-29T19:49:55.844Z,7.57
2018-06-29T19:52:37.751Z,7.00
2018-06-29T19:55:08.029Z,6.87
2018-06-29T19:57:36.274Z,7.80
2018-06-29T20:00:09.846Z,7.00
2018-06-29T20:02:38.197Z,7.17
2018-06-29T20:05:12.864Z,6.80
2018-06-29T20:07:41.177Z,6.50
2018-06-29T20:10:13.619Z,7.60
2018-06-29T20:12:44.724Z,7.17
2018-06-29T20:15:20.700Z,7.57
2018-06-29T20:17:48.929Z,7.93
2018-06-29T20:20:23.557Z,7.60
2018-06-29T20:22:51.790Z,7.17
2018-06-29T20:25:27.141Z,7.30
2018-06-29T20:28:07.701Z,8.03
2018-06-29T20:30:40.792Z,8.60
2018-06-29T20:33:23.012Z,8.80
2018-06-29T20:35:51.577Z,8.20
2018-06-29T20:38:19.958Z,6.83
2018-06-29T20:40:48.022Z,8.70
2018-06-29T20:43:22.600Z,8.27
2018-06-29T20:45:53.438Z,8.23
2018-06-29T20:48:21.805Z,8.57
2018-06-29T20:50:50.034Z,9.07
2018-06-29T20:53:22.454Z,8.33
2018-06-29T20:55:53.524Z,9.10
2018-06-29T20:58:23.796Z,8.47
2018-06-29T21:00:51.984Z,9.27
2018-06-29T21:03:22.997Z,9.87
2018-06-29T21:05:51.182Z,8.70
2018-06-29T21:08:19.447Z,8.57
2018-06-29T21:10:51.933Z,9.60
2018-06-29T21:13:22.464Z,8.77
2018-06-29T21:15:50.658Z,8.70
2018-06-29T21:18:32.609Z,9.37
2018-06-29T21:21:01.028Z,8.53
2018-06-29T21:23:29.178Z,8.97
2018-06-29T21:26:02.230Z,9.47
2018-06-29T21:28:33.727Z,8.87
2018-06-29T21:31:12.066Z,9.50
2018-06-29T21:33:56.235Z,9.37
2018-06-29T21:36:24.498Z,9.03
2018-06-29T21:38:53.359Z,9.97
2018-06-29T21:41:30.272Z,9.90
2018-06-29T21:44:10.033Z,10.33
2018-06-29T21:46:38.323Z,10.80
2018-06-29T21:49:06.569Z,9.87
2018-06-29T21:51:37.716Z,9.50
2018-06-29T21:54:17.677Z,9.80
2018-06-29T21:56:45.885Z,9.37
2018-06-29T21:59:16.866Z,9.50
2018-06-29T22:01:45.011Z,9.60
2018-06-29T22:04:20.266Z,10.53
2018-06-29T22:06:54.989Z,9.50
2018-06-29T22:09:23.209Z,9.83
2018-06-29T22:12:03.156Z,10.13
2018-06-29T22:14:32.010Z,9.50
2018-06-29T22:17:08.527Z,9.50
2018-06-29T22:19:41.564Z,9.70
2018-06-29T22:22:09.797Z,8.60
2018-06-29T22:24:37.991Z,8.47
2018-06-29T22:27:12.720Z,9.03
2018-06-29T22:29:40.869Z,9.00
2018-06-29T22:32:16.439Z,7.47
2018-06-29T22:34:48.590Z,8.20
2018-06-29T22:37:30.849Z,8.03
2018-06-29T22:39:59.093Z,7.83
2018-06-29T22:42:27.245Z,7.67
2018-06-29T22:45:01.883Z,7.07
2018-06-29T22:47:33.066Z,7.30
2018-06-29T22:50:06.138Z,6.77
2018-06-29T22:52:34.282Z,6.87
2018-06-29T22:55:05.244Z,5.93
2018-06-29T22:57:35.474Z,6.13
2018-06-29T23:00:03.800Z,5.90
2018-06-29T23:02:34.784Z,5.60
2018-06-29T23:05:15.185Z,4.53
2018-06-29T23:07:47.396Z,4.97
2018-06-29T23:10:17.719Z,5.00
2018-06-29T23:12:45.991Z,4.50
2018-06-29T23:15:23.745Z,4.73
2018-06-29T23:17:52.206Z,4.70
2018-06-29T23:20:20.464Z,4.43
2018-06-29T23:22:53.614Z,4.40
2018-06-29T23:25:24.793Z,4.60
2018-06-29T23:27:55.079Z,4.57
2018-06-29T23:30:23.312Z,3.73
2018-06-29T23:32:55.751Z,4.40
2018-06-29T23:35:27.113Z,4.20
2018-06-29T23:38:08.980Z,4.20
2018-06-29T23:40:37.290Z,3.70
2018-06-29T23:43:05.659Z,3.53
2018-06-29T23:45:37.245Z,3.87
2018-06-29T23:48:05.350Z,3.77
2018-06-29T23:50:40.481Z,3.70
2018-06-29T23:53:10.652Z,3.67
2018-06-29T23:55:39.017Z,4.00
2018-06-29T23:58:11.568Z,3.83
